Terminal Aerodrome Forecast
Issued by NWS Cleveland, OH

Home | Current Version | Previous Version | Text Only | Print | Product List | Glossary Off
Versions: 1 2 3 4 5 6 7 8 9 10 11 12 13 14 15 16 17 18 19 20 21 22 23

859
FTUS41 KCLE 152202 AAA
TAFERI
TAF AMD
KERI 152202Z 1522/1618 22009KT 4SM -RA BR SCT022 OVC050
      TEMPO 1523/1603 6SM -RA BR BKN022
     FM160300 26006KT 1SM RA BR OVC005
     FM160900 30007KT 1SM BR OVC005
     FM161600 32013G23KT 3SM BR OVC010=

USA.gov is the U.S. government's official web portal to all federal, state and local government web resources and services.